Time;durP1;ratioP1;P1;durP2;ratioP2;P2;SDS_P1;SDS_P2;PMS_P1;PMS_P2;Temp;Humidity;BMP_temperature;BMP_pressure;BME280_temperature;BME280_humidity;BME280_pressure;Samples;Min_cycle;Max_cycle;Signal;HPM_P1;HPM_P2
2021/06/26 00:01:31;;;;;;;1.30;0.50;;;23.50;58.90;;;;;;4973520;28;20404;-65
2021/06/26 00:03:57;;;;;;;1.55;0.50;;;23.50;58.90;;;;;;4974077;28;20717;-65
2021/06/26 00:06:24;;;;;;;1.00;0.50;;;23.40;58.80;;;;;;4972644;28;20401;-65
2021/06/26 00:08:52;;;;;;;0.90;0.50;;;23.50;58.80;;;;;;4973868;28;20403;-65
2021/06/26 00:11:18;;;;;;;1.02;0.60;;;23.50;58.80;;;;;;4973352;28;20423;-66
2021/06/26 00:13:44;;;;;;;0.77;0.50;;;23.50;58.80;;;;;;4973773;28;20741;-66
2021/06/26 00:16:10;;;;;;;0.73;0.50;;;23.40;58.80;;;;;;4973846;28;20884;-65
2021/06/26 00:18:35;;;;;;;0.80;0.50;;;23.50;58.80;;;;;;4973659;28;20463;-66
2021/06/26 00:21:01;;;;;;;0.97;0.50;;;23.40;58.70;;;;;;4973733;28;20391;-65
2021/06/26 00:23:27;;;;;;;0.70;0.50;;;23.40;58.80;;;;;;4973132;28;20400;-65
2021/06/26 00:25:52;;;;;;;1.07;0.60;;;23.40;58.80;;;;;;4973599;28;20400;-65
2021/06/26 00:28:18;;;;;;;1.25;0.60;;;23.40;58.80;;;;;;4973517;28;20400;-65
2021/06/26 00:30:44;;;;;;;0.90;0.40;;;23.40;58.80;;;;;;4973512;28;20428;-65
2021/06/26 00:33:09;;;;;;;1.30;0.50;;;23.40;58.80;;;;;;4973299;28;20400;-65
2021/06/26 00:35:35;;;;;;;0.67;0.43;;;23.40;58.80;;;;;;4973169;28;20392;-65
2021/06/26 00:38:00;;;;;;;1.05;0.60;;;23.40;58.80;;;;;;4973485;28;20396;-65
2021/06/26 00:40:26;;;;;;;0.70;0.50;;;23.40;58.80;;;;;;4973230;28;20396;-65
2021/06/26 00:42:52;;;;;;;1.00;0.50;;;23.40;58.80;;;;;;4972079;28;20915;-66
2021/06/26 00:45:18;;;;;;;0.85;0.50;;;23.40;58.80;;;;;;4972811;28;20403;-65
2021/06/26 00:47:44;;;;;;;1.17;0.50;;;23.40;58.80;;;;;;4972041;28;20392;-65
2021/06/26 00:50:15;;;;;;;1.05;0.50;;;23.40;58.80;;;;;;4973152;28;20874;-65
2021/06/26 00:52:41;;;;;;;0.67;0.40;;;23.40;58.80;;;;;;4973247;28;20749;-65
2021/06/26 00:55:07;;;;;;;0.60;0.40;;;23.40;58.80;;;;;;4972962;28;20408;-65
2021/06/26 00:57:34;;;;;;;0.98;0.50;;;23.40;58.70;;;;;;4986669;28;20408;-65
2021/06/26 01:00:01;;;;;;;1.13;0.50;;;23.40;58.80;;;;;;4973034;28;20987;-65
2021/06/26 01:02:26;;;;;;;0.68;0.32;;;23.40;58.80;;;;;;4972665;28;20396;-65
2021/06/26 01:04:52;;;;;;;0.60;0.40;;;23.40;58.70;;;;;;4972990;28;20400;-65
2021/06/26 01:07:18;;;;;;;0.70;0.40;;;23.40;58.70;;;;;;4972310;28;20399;-65
2021/06/26 01:09:43;;;;;;;1.30;0.50;;;23.40;58.70;;;;;;4972943;28;20400;-65
2021/06/26 01:12:09;;;;;;;0.73;0.45;;;23.30;58.60;;;;;;4971033;28;20419;-66
2021/06/26 01:14:34;;;;;;;0.63;0.43;;;23.40;58.70;;;;;;4971470;28;20400;-65
2021/06/26 01:17:07;;;;;;;1.13;0.50;;;23.30;58.70;;;;;;4972876;28;20404;-65
2021/06/26 01:19:34;;;;;;;0.80;0.50;;;23.40;58.60;;;;;;4972385;28;20944;-65
2021/06/26 01:22:04;;;;;;;0.80;0.50;;;23.30;58.60;;;;;;4972865;28;20911;-65
2021/06/26 01:24:30;;;;;;;0.60;0.40;;;23.30;58.60;;;;;;4972845;28;20400;-65
2021/06/26 01:26:59;;;;;;;1.00;0.50;;;23.30;58.70;;;;;;4972816;28;20406;-65
2021/06/26 01:29:26;;;;;;;0.90;0.50;;;23.30;59.20;;;;;;4972265;28;20483;-65
2021/06/26 01:31:52;;;;;;;1.30;0.45;;;23.30;58.70;;;;;;4972747;28;20411;-65
2021/06/26 01:34:19;;;;;;;0.88;0.50;;;23.30;58.70;;;;;;4970398;28;20401;-65
2021/06/26 01:36:45;;;;;;;1.60;0.50;;;23.30;58.60;;;;;;4968822;28;20506;-65
2021/06/26 01:39:10;;;;;;;0.63;0.50;;;23.30;58.60;;;;;;4972744;28;20959;-65
2021/06/26 01:41:36;;;;;;;1.00;0.50;;;23.30;58.60;;;;;;4969396;28;20764;-65
2021/06/26 01:44:02;;;;;;;0.70;0.32;;;23.30;58.50;;;;;;4971030;28;20483;-65
2021/06/26 01:46:28;;;;;;;1.00;0.52;;;23.30;58.50;;;;;;4987564;28;20491;-65
2021/06/26 01:49:04;;;;;;;0.90;0.50;;;23.30;58.40;;;;;;4971397;28;20496;-65
2021/06/26 01:51:35;;;;;;;1.10;0.43;;;23.30;59.10;;;;;;4971984;28;20483;-65
2021/06/26 01:54:00;;;;;;;0.70;0.40;;;23.30;59.00;;;;;;4972355;28;20445;-65
2021/06/26 01:56:26;;;;;;;0.60;0.40;;;23.30;59.10;;;;;;4972625;28;20412;-65
2021/06/26 01:58:51;;;;;;;0.73;0.43;;;23.30;58.50;;;;;;4972507;28;20756;-65
2021/06/26 02:01:17;;;;;;;0.70;0.40;;;23.30;58.50;;;;;;4971960;28;20451;-65
2021/06/26 02:03:43;;;;;;;0.80;0.47;;;23.30;58.50;;;;;;4972432;28;20948;-65
2021/06/26 02:06:08;;;;;;;0.60;0.40;;;23.20;58.50;;;;;;4972426;28;20410;-65
2021/06/26 02:08:34;;;;;;;0.53;0.40;;;23.30;58.50;;;;;;4972249;28;20395;-65
2021/06/26 02:11:00;;;;;;;0.70;0.45;;;23.20;58.50;;;;;;4975902;28;20435;-65
2021/06/26 02:13:25;;;;;;;0.80;0.50;;;23.20;58.50;;;;;;4975531;28;20487;-65
2021/06/26 02:15:51;;;;;;;0.60;0.40;;;23.20;58.50;;;;;;4976044;28;20752;-65
2021/06/26 02:18:16;;;;;;;1.20;0.60;;;23.20;58.60;;;;;;4975953;28;20395;-65
2021/06/26 02:20:42;;;;;;;0.80;0.40;;;23.30;58.60;;;;;;4975930;28;20396;-65
2021/06/26 02:23:07;;;;;;;0.93;0.50;;;23.20;59.10;;;;;;4975879;28;20392;-65
2021/06/26 02:25:33;;;;;;;0.53;0.37;;;23.20;58.50;;;;;;4990251;28;20408;-65
2021/06/26 02:27:59;;;;;;;0.70;0.40;;;23.20;58.40;;;;;;4975826;28;20397;-65
2021/06/26 02:30:24;;;;;;;0.73;0.45;;;23.20;58.40;;;;;;4975660;28;20423;-65
2021/06/26 02:32:50;;;;;;;0.90;0.30;;;23.20;58.50;;;;;;4990659;28;20764;-65
2021/06/26 02:35:15;;;;;;;0.85;0.52;;;23.20;58.50;;;;;;4975435;28;20412;-65
2021/06/26 02:37:42;;;;;;;0.70;0.40;;;23.20;58.40;;;;;;4990396;28;20400;-65
2021/06/26 02:40:09;;;;;;;0.73;0.50;;;23.20;58.50;;;;;;4975629;28;20404;-65
2021/06/26 02:42:34;;;;;;;0.90;0.47;;;23.20;58.30;;;;;;4975513;28;20454;-65
2021/06/26 02:45:00;;;;;;;1.00;0.37;;;23.20;59.00;;;;;;4974316;28;20412;-65
2021/06/26 02:47:25;;;;;;;0.90;0.40;;;23.20;58.40;;;;;;4973739;28;20400;-65
2021/06/26 02:49:51;;;;;;;0.77;0.43;;;23.20;59.00;;;;;;4975389;28;20451;-65
2021/06/26 02:52:17;;;;;;;0.50;0.40;;;23.20;58.50;;;;;;4975291;28;20431;-66
2021/06/26 02:54:43;;;;;;;0.70;0.40;;;23.20;58.50;;;;;;4975178;28;20407;-65
2021/06/26 02:57:08;;;;;;;1.30;0.50;;;23.20;58.50;;;;;;4975399;28;20393;-65
2021/06/26 02:59:34;;;;;;;0.60;0.43;;;23.20;58.50;;;;;;4974770;28;20404;-65
2021/06/26 03:02:00;;;;;;;0.47;0.30;;;23.20;58.50;;;;;;4975314;28;20399;-65
2021/06/26 03:04:25;;;;;;;0.97;0.40;;;23.20;58.50;;;;;;4975023;28;20392;-65
2021/06/26 03:06:51;;;;;;;0.70;0.40;;;23.20;58.50;;;;;;4990062;28;20884;-65
2021/06/26 03:09:16;;;;;;;0.80;0.50;;;23.20;58.50;;;;;;4974778;28;20439;-65
2021/06/26 03:11:42;;;;;;;0.60;0.40;;;23.20;58.40;;;;;;4974741;28;20452;-65
2021/06/26 03:14:08;;;;;;;0.80;0.43;;;23.20;58.40;;;;;;4974971;28;20906;-65
2021/06/26 03:16:33;;;;;;;0.60;0.30;;;23.10;58.30;;;;;;4974927;28;20400;-65
2021/06/26 03:18:59;;;;;;;0.53;0.40;;;23.10;58.30;;;;;;4973702;28;20742;-65
2021/06/26 03:21:24;;;;;;;0.68;0.40;;;23.10;58.40;;;;;;4973639;28;20951;-65
2021/06/26 03:23:50;;;;;;;0.60;0.43;;;23.20;58.40;;;;;;4989679;28;20400;-65
2021/06/26 03:26:16;;;;;;;0.68;0.40;;;23.10;58.50;;;;;;4989581;28;20415;-66
2021/06/26 03:28:43;;;;;;;0.60;0.40;;;23.10;58.40;;;;;;4974701;28;20447;-65
2021/06/26 03:31:09;;;;;;;0.90;0.40;;;23.10;58.30;;;;;;4974504;28;20446;-65
2021/06/26 03:33:35;;;;;;;0.55;0.40;;;23.10;58.40;;;;;;4974158;28;20887;-65
2021/06/26 03:36:00;;;;;;;0.80;0.40;;;23.10;58.90;;;;;;4974627;28;20408;-65
2021/06/26 03:38:26;;;;;;;0.90;0.47;;;23.10;58.30;;;;;;4974554;28;20428;-65
2021/06/26 03:40:53;;;;;;;0.57;0.40;;;23.10;58.40;;;;;;4989447;28;20491;-65
2021/06/26 03:43:19;;;;;;;0.60;0.40;;;23.10;58.50;;;;;;4974186;28;20442;-65
2021/06/26 03:45:45;;;;;;;0.60;0.40;;;23.10;58.50;;;;;;4974259;28;20404;-65
2021/06/26 03:48:10;;;;;;;0.60;0.40;;;23.10;58.50;;;;;;4974350;28;20438;-65
2021/06/26 03:50:38;;;;;;;0.60;0.40;;;23.10;58.50;;;;;;4974238;28;20418;-65
2021/06/26 03:53:03;;;;;;;0.60;0.40;;;23.20;58.50;;;;;;4974318;28;20920;-65
2021/06/26 03:55:29;;;;;;;0.70;0.40;;;23.10;58.30;;;;;;4988563;28;20427;-65
2021/06/26 03:57:55;;;;;;;0.53;0.40;;;23.10;58.30;;;;;;4974198;28;20392;-65
2021/06/26 04:00:21;;;;;;;0.70;0.43;;;23.10;58.20;;;;;;4974047;28;20969;-66
2021/06/26 04:02:46;;;;;;;0.52;0.40;;;23.10;58.20;;;;;;4974138;28;20470;-65
2021/06/26 04:05:12;;;;;;;1.00;0.50;;;23.10;58.20;;;;;;4972779;28;20392;-65
2021/06/26 04:07:38;;;;;;;0.90;0.50;;;23.10;58.30;;;;;;4988345;28;20494;-65
2021/06/26 04:10:05;;;;;;;0.57;0.30;;;23.10;58.30;;;;;;4973883;28;20412;-65
2021/06/26 04:12:31;;;;;;;0.50;0.40;;;23.10;58.30;;;;;;4973869;28;20896;-65
2021/06/26 04:14:56;;;;;;;1.10;0.40;;;23.10;58.30;;;;;;4973903;28;20392;-65
2021/06/26 04:17:22;;;;;;;0.70;0.40;;;23.10;58.30;;;;;;4973447;28;20443;-65
2021/06/26 04:19:48;;;;;;;1.50;0.40;;;23.20;58.50;;;;;;4973805;28;20783;-65
2021/06/26 04:22:13;;;;;;;1.13;0.50;;;23.10;58.40;;;;;;4973708;28;20404;-65
2021/06/26 04:24:39;;;;;;;0.70;0.43;;;23.10;58.50;;;;;;4988556;28;20400;-66
2021/06/26 04:27:05;;;;;;;0.90;0.30;;;23.10;58.40;;;;;;4973748;28;20487;-65
2021/06/26 04:29:31;;;;;;;0.60;0.40;;;23.10;58.40;;;;;;4973068;28;20419;-65
2021/06/26 04:31:56;;;;;;;0.97;0.40;;;23.10;58.40;;;;;;4973290;28;20750;-65
2021/06/26 04:34:22;;;;;;;0.70;0.40;;;23.10;58.40;;;;;;4972813;28;20403;-66
2021/06/26 04:36:48;;;;;;;0.70;0.40;;;23.10;58.30;;;;;;4988439;28;20399;-65
2021/06/26 04:39:14;;;;;;;0.60;0.45;;;23.10;58.40;;;;;;4973399;28;20396;-66
2021/06/26 04:41:40;;;;;;;0.63;0.30;;;23.20;58.50;;;;;;4972972;28;20407;-66
2021/06/26 04:44:06;;;;;;;0.60;0.40;;;23.10;58.40;;;;;;4973345;28;20420;-65
2021/06/26 04:46:32;;;;;;;0.77;0.30;;;23.10;58.50;;;;;;4973286;28;20428;-65
2021/06/26 04:48:58;;;;;;;0.90;0.50;;;23.20;58.50;;;;;;4973226;28;20760;-65
2021/06/26 04:51:25;;;;;;;0.90;0.47;;;23.20;58.60;;;;;;4972627;28;20436;-65
2021/06/26 04:53:50;;;;;;;0.70;0.45;;;23.20;58.50;;;;;;4973108;28;20407;-65
2021/06/26 04:56:16;;;;;;;0.80;0.40;;;23.10;58.50;;;;;;4988029;28;20773;-65
2021/06/26 04:58:42;;;;;;;0.93;0.40;;;23.20;58.40;;;;;;4973105;28;20515;-65
2021/06/26 05:01:07;;;;;;;0.60;0.40;;;23.20;58.40;;;;;;4973010;28;20408;-65
2021/06/26 05:03:33;;;;;;;0.80;0.40;;;23.20;58.40;;;;;;4987508;28;20415;-65
2021/06/26 05:06:00;;;;;;;0.70;0.50;;;23.20;58.30;;;;;;4972988;28;20427;-65
2021/06/26 05:08:26;;;;;;;1.10;0.60;;;23.20;58.20;;;;;;4972930;28;20466;-65
2021/06/26 05:10:52;;;;;;;2.30;0.50;;;23.20;58.40;;;;;;4972846;28;20431;-65
2021/06/26 05:13:18;;;;;;;0.70;0.50;;;23.20;59.10;;;;;;4972951;28;20388;-66
2021/06/26 05:15:44;;;;;;;2.00;0.60;;;23.20;58.10;;;;;;4972330;28;20911;-65
2021/06/26 05:18:10;;;;;;;1.02;0.43;;;23.20;58.60;;;;;;4972767;28;20392;-66
2021/06/26 05:20:37;;;;;;;1.30;0.50;;;23.20;58.90;;;;;;4972925;28;20447;-65
2021/06/26 05:23:13;;;;;;;0.90;0.50;;;23.20;58.60;;;;;;4972766;28;20448;-65
2021/06/26 05:25:39;;;;;;;1.45;0.57;;;23.30;58.90;;;;;;4972165;28;20876;-64
2021/06/26 05:28:04;;;;;;;1.80;0.60;;;23.30;58.60;;;;;;4972625;28;20454;-65
2021/06/26 05:30:30;;;;;;;1.20;0.57;;;23.30;58.60;;;;;;4972606;28;20408;-65
2021/06/26 05:32:55;;;;;;;1.27;0.60;;;23.30;58.50;;;;;;4972724;28;20403;-65
2021/06/26 05:35:21;;;;;;;1.47;0.50;;;23.30;58.30;;;;;;4972524;28;20384;-65
2021/06/26 05:37:47;;;;;;;1.00;0.50;;;23.30;58.60;;;;;;4972581;28;20431;-65
2021/06/26 05:40:13;;;;;;;1.05;0.60;;;23.30;58.60;;;;;;4972585;28;20384;-65
2021/06/26 05:42:38;;;;;;;0.98;0.63;;;23.30;58.60;;;;;;4972667;28;20395;-65
2021/06/26 05:45:05;;;;;;;0.97;0.63;;;23.30;58.60;;;;;;4974403;28;20392;-65
2021/06/26 05:47:31;;;;;;;1.20;0.60;;;23.30;58.70;;;;;;4976056;28;20427;-65
2021/06/26 05:49:57;;;;;;;1.17;0.57;;;23.40;58.80;;;;;;4976443;28;20458;-65
2021/06/26 05:52:22;;;;;;;1.77;0.63;;;23.40;59.00;;;;;;4976449;28;20412;-65
2021/06/26 05:54:48;;;;;;;1.77;0.70;;;23.40;59.20;;;;;;4976309;28;20432;-65
2021/06/26 05:57:14;;;;;;;0.88;0.50;;;23.50;59.00;;;;;;4976359;28;20904;-65
2021/06/26 05:59:39;;;;;;;5.37;0.60;;;23.50;58.90;;;;;;4975716;28;20396;-65
2021/06/26 06:02:10;;;;;;;2.67;0.70;;;23.50;59.20;;;;;;4979163;28;20420;-65
2021/06/26 06:04:35;;;;;;;2.72;0.52;;;23.50;59.40;;;;;;4983150;28;20427;-65
2021/06/26 06:07:02;;;;;;;2.73;0.70;;;23.50;59.80;;;;;;4976217;28;20457;-65
2021/06/26 06:09:27;;;;;;;2.13;0.60;;;23.50;59.20;;;;;;4975733;28;20442;-67
2021/06/26 06:11:53;;;;;;;2.35;0.60;;;23.50;59.50;;;;;;4976108;28;20428;-65
2021/06/26 06:14:18;;;;;;;5.00;0.80;;;23.50;60.30;;;;;;4975872;28;20419;-65
2021/06/26 06:16:44;;;;;;;3.25;0.50;;;23.50;60.10;;;;;;4975823;28;20403;-65
2021/06/26 06:19:10;;;;;;;1.63;0.60;;;23.50;59.00;;;;;;4975991;28;20877;-65
2021/06/26 06:21:35;;;;;;;1.47;0.60;;;23.60;59.00;;;;;;4975084;28;20387;-65
2021/06/26 06:24:01;;;;;;;1.75;0.52;;;23.60;59.00;;;;;;4974648;28;20396;-65
2021/06/26 06:26:26;;;;;;;2.43;0.50;;;23.70;59.00;;;;;;4974414;28;20895;-65
2021/06/26 06:28:52;;;;;;;2.03;0.60;;;23.60;59.20;;;;;;4974538;28;20428;-65
2021/06/26 06:31:18;;;;;;;2.03;0.53;;;23.70;59.20;;;;;;4974247;28;20776;-65
2021/06/26 06:33:43;;;;;;;3.50;0.80;;;23.60;58.90;;;;;;4974016;28;20399;-65
2021/06/26 06:36:09;;;;;;;2.17;0.60;;;23.60;59.00;;;;;;4973970;28;20473;-67
2021/06/26 06:38:35;;;;;;;1.83;0.60;;;23.60;59.00;;;;;;4973775;28;20403;-66
2021/06/26 06:41:01;;;;;;;2.00;0.60;;;23.60;59.00;;;;;;4974008;28;20403;-67
2021/06/26 06:43:27;;;;;;;1.27;0.60;;;23.60;59.00;;;;;;4973871;28;20453;-66
2021/06/26 06:45:52;;;;;;;1.67;0.70;;;23.60;59.00;;;;;;4973834;28;20439;-66
2021/06/26 06:48:18;;;;;;;2.47;0.82;;;23.60;59.00;;;;;;4989064;28;20406;-65
2021/06/26 06:50:44;;;;;;;1.30;0.70;;;23.60;58.90;;;;;;4974010;28;20769;-65
2021/06/26 06:53:09;;;;;;;2.22;0.70;;;23.60;58.80;;;;;;4973985;28;20400;-66
2021/06/26 06:55:35;;;;;;;2.20;0.70;;;23.60;58.80;;;;;;4972493;28;20507;-65
2021/06/26 06:58:00;;;;;;;1.40;0.68;;;23.60;58.70;;;;;;4973872;28;20407;-65
2021/06/26 07:00:27;;;;;;;1.30;0.60;;;23.60;58.70;;;;;;4973653;28;20407;-65
2021/06/26 07:02:52;;;;;;;2.25;0.70;;;23.60;58.60;;;;;;4972494;28;20408;-65
2021/06/26 07:05:18;;;;;;;1.40;0.60;;;23.60;59.20;;;;;;4973702;28;20404;-65
2021/06/26 07:07:44;;;;;;;1.73;0.70;;;23.60;58.60;;;;;;4972118;28;20528;-65
2021/06/26 07:10:10;;;;;;;1.17;0.67;;;23.60;58.50;;;;;;4972451;28;20503;-65
2021/06/26 07:12:36;;;;;;;1.13;0.60;;;23.60;58.50;;;;;;4973658;28;20531;-66
2021/06/26 07:15:02;;;;;;;1.88;0.60;;;23.60;58.50;;;;;;4973745;28;20484;-65
2021/06/26 07:17:28;;;;;;;1.73;0.63;;;23.60;58.40;;;;;;4971920;28;20484;-66
2021/06/26 07:19:53;;;;;;;1.00;0.50;;;23.70;58.50;;;;;;4973399;28;20483;-65
2021/06/26 07:22:19;;;;;;;1.17;0.50;;;23.70;58.40;;;;;;4973506;28;20400;-65
2021/06/26 07:24:44;;;;;;;1.20;0.60;;;23.70;58.40;;;;;;4973612;28;20400;-66
2021/06/26 07:27:10;;;;;;;1.60;0.52;;;23.70;58.90;;;;;;4973334;28;20422;-66
2021/06/26 07:29:36;;;;;;;0.83;0.50;;;23.70;58.30;;;;;;4987838;28;20404;-65
2021/06/26 07:32:02;;;;;;;0.70;0.50;;;23.70;58.30;;;;;;4973301;28;20432;-66
2021/06/26 07:34:28;;;;;;;0.95;0.60;;;23.70;58.30;;;;;;4973324;28;20392;-65
2021/06/26 07:36:53;;;;;;;1.50;0.60;;;23.70;58.30;;;;;;4973396;28;20869;-65
2021/06/26 07:39:19;;;;;;;1.73;0.68;;;23.70;58.20;;;;;;4973198;28;20392;-65
2021/06/26 07:41:45;;;;;;;1.27;0.80;;;23.70;58.30;;;;;;4972728;28;20730;-65
2021/06/26 07:44:10;;;;;;;1.80;0.70;;;23.70;58.20;;;;;;4973217;28;20388;-65
2021/06/26 07:46:36;;;;;;;1.40;0.70;;;23.70;58.20;;;;;;4972895;28;20408;-65
2021/06/26 07:49:02;;;;;;;2.58;0.98;;;23.70;58.20;;;;;;4977618;28;20404;-65
2021/06/26 07:51:27;;;;;;;2.00;0.80;;;23.70;58.10;;;;;;4972968;28;20499;-66
2021/06/26 07:53:53;;;;;;;1.60;0.75;;;23.70;58.20;;;;;;4972479;28;20892;-65
2021/06/26 07:56:19;;;;;;;1.48;0.73;;;23.70;58.20;;;;;;4972899;28;20446;-66
2021/06/26 07:58:44;;;;;;;1.33;0.80;;;23.70;58.20;;;;;;4972853;28;20380;-65
2021/06/26 08:01:11;;;;;;;1.55;0.70;;;23.70;58.10;;;;;;4974567;28;20466;-65
2021/06/26 08:03:36;;;;;;;1.38;0.68;;;23.70;58.10;;;;;;4984352;28;20406;-65
2021/06/26 08:06:05;;;;;;;1.50;0.60;;;23.70;58.20;;;;;;4990860;28;20394;-67
2021/06/26 08:08:31;;;;;;;1.48;0.70;;;23.70;58.10;;;;;;4992031;28;20581;-66
2021/06/26 08:10:57;;;;;;;1.92;0.63;;;23.70;58.10;;;;;;4992006;28;21345;-65
2021/06/26 08:13:24;;;;;;;1.63;0.60;;;23.80;58.10;;;;;;4990768;28;20473;-65
2021/06/26 08:15:51;;;;;;;1.08;0.60;;;23.80;58.30;;;;;;4989854;28;20480;-65
2021/06/26 08:18:17;;;;;;;1.30;0.70;;;23.70;58.00;;;;;;4991803;28;20402;-65
2021/06/26 08:20:43;;;;;;;1.08;0.60;;;23.70;58.00;;;;;;4991927;28;20391;-66
2021/06/26 08:23:09;;;;;;;1.25;0.60;;;23.70;58.00;;;;;;4991862;28;20426;-65
2021/06/26 08:25:35;;;;;;;1.30;0.70;;;23.70;58.00;;;;;;4991269;28;20489;-66
2021/06/26 08:28:01;;;;;;;1.50;0.63;;;23.80;58.00;;;;;;4991657;28;20445;-65
2021/06/26 08:30:26;;;;;;;1.23;0.70;;;23.70;57.90;;;;;;4991509;28;20442;-65
2021/06/26 08:32:52;;;;;;;1.20;0.50;;;23.80;57.90;;;;;;4985458;28;20457;-65
2021/06/26 08:35:18;;;;;;;0.97;0.60;;;23.80;58.50;;;;;;4991737;28;20814;-66
2021/06/26 08:37:44;;;;;;;1.70;0.70;;;23.80;58.00;;;;;;4991004;28;20442;-66
2021/06/26 08:40:12;;;;;;;0.88;0.57;;;23.70;57.90;;;;;;4991636;28;20425;-67
2021/06/26 08:42:37;;;;;;;2.83;0.90;;;23.70;57.80;;;;;;4991476;28;20497;-66
2021/06/26 08:45:08;;;;;;;2.60;0.90;;;23.80;58.00;;;;;;4981224;28;20963;-65
2021/06/26 08:47:34;;;;;;;3.38;0.90;;;23.80;58.60;;;;;;4967698;28;20380;-65
2021/06/26 08:50:00;;;;;;;3.40;1.13;;;23.80;58.90;;;;;;4968422;28;20404;-65
2021/06/26 08:52:26;;;;;;;3.72;1.10;;;23.80;59.10;;;;;;4970881;28;20396;-67
2021/06/26 08:54:53;;;;;;;4.22;1.02;;;23.80;59.20;;;;;;4972339;28;20412;-66
2021/06/26 08:57:30;;;;;;;4.57;1.17;;;23.90;59.40;;;;;;4963864;28;20430;-65
2021/06/26 08:59:58;;;;;;;2.45;0.90;;;23.90;59.30;;;;;;4960665;28;20406;-66
2021/06/26 09:02:25;;;;;;;3.13;0.90;;;24.00;59.40;;;;;;4972161;28;20872;-66
2021/06/26 09:04:50;;;;;;;2.17;0.77;;;24.00;59.30;;;;;;4972731;28;20471;-65
2021/06/26 09:07:26;;;;;;;1.33;0.73;;;24.00;59.20;;;;;;4956416;28;20872;-65
2021/06/26 09:09:55;;;;;;;2.65;0.80;;;24.10;59.20;;;;;;4971866;28;20435;-66
2021/06/26 09:12:21;;;;;;;2.97;0.90;;;24.10;59.70;;;;;;4967979;28;20524;-66
2021/06/26 09:14:47;;;;;;;1.50;0.82;;;24.10;59.30;;;;;;4969932;28;20475;-65
2021/06/26 09:17:17;;;;;;;2.28;0.77;;;24.10;59.30;;;;;;4970156;28;20392;-65
2021/06/26 09:19:57;;;;;;;2.85;0.90;;;24.10;59.00;;;;;;4968011;28;20453;-65
2021/06/26 09:22:23;;;;;;;7.40;1.20;;;24.10;60.00;;;;;;4969264;28;20412;-65
2021/06/26 09:24:51;;;;;;;2.97;0.88;;;24.10;59.30;;;;;;4975525;28;20874;-66
2021/06/26 09:27:19;;;;;;;2.22;0.80;;;24.10;60.00;;;;;;4971078;28;20415;-66
2021/06/26 09:29:55;;;;;;;3.13;0.90;;;24.20;59.40;;;;;;4971996;28;20393;-67
2021/06/26 09:32:29;;;;;;;3.85;1.10;;;24.20;59.00;;;;;;4971434;28;20430;-67
2021/06/26 09:34:56;;;;;;;2.47;0.90;;;24.10;59.10;;;;;;4972584;28;20384;-66
2021/06/26 09:37:28;;;;;;;3.97;1.10;;;24.10;59.10;;;;;;4972270;28;20404;-66
2021/06/26 09:39:58;;;;;;;2.95;1.00;;;24.10;59.00;;;;;;4971840;28;20388;-66
2021/06/26 09:42:26;;;;;;;2.70;1.02;;;24.20;59.60;;;;;;4972298;28;20400;-67
2021/06/26 09:44:56;;;;;;;3.58;1.10;;;24.20;59.20;;;;;;4968394;28;20408;-67
2021/06/26 09:47:34;;;;;;;2.97;0.90;;;24.20;59.20;;;;;;4971922;28;20403;-67
2021/06/26 09:50:06;;;;;;;2.78;1.00;;;24.20;59.60;;;;;;4971741;28;20476;-66
2021/06/26 09:53:05;;;;;;;3.40;1.00;;;24.20;58.90;;;;;;4987253;28;20440;-66
2021/06/26 09:55:37;;;;;;;3.38;0.93;;;24.10;58.70;;;;;;4964597;28;20427;-67
2021/06/26 09:58:13;;;;;;;3.75;1.10;;;24.10;58.70;;;;;;4972400;28;20496;-67
2021/06/26 10:00:43;;;;;;;4.75;1.02;;;24.10;58.50;;;;;;4972494;28;20869;-67
2021/06/26 10:03:20;;;;;;;3.47;1.08;;;24.10;58.50;;;;;;4989466;28;20406;-66
2021/06/26 10:05:46;;;;;;;2.20;0.90;;;24.10;58.40;;;;;;4976281;28;20499;-67
2021/06/26 10:08:14;;;;;;;2.47;0.90;;;24.10;58.30;;;;;;4984938;28;20539;-67
2021/06/26 10:10:40;;;;;;;2.92;1.10;;;24.10;58.40;;;;;;4989726;28;20413;-67
2021/06/26 10:13:05;;;;;;;4.57;1.00;;;24.10;57.90;;;;;;4989769;28;20990;-67
2021/06/26 10:15:33;;;;;;;2.07;0.93;;;24.10;57.70;;;;;;4989545;28;20398;-66
2021/06/26 10:18:00;;;;;;;3.00;1.10;;;24.10;57.50;;;;;;4989824;28;20395;-67
2021/06/26 10:20:27;;;;;;;2.03;1.00;;;24.10;57.40;;;;;;4991275;28;20395;-66
2021/06/26 10:22:58;;;;;;;2.45;1.00;;;24.10;57.40;;;;;;4991896;28;20867;-67
2021/06/26 10:25:38;;;;;;;2.63;1.00;;;24.10;57.40;;;;;;4991524;28;20490;-66
2021/06/26 10:28:16;;;;;;;1.80;1.00;;;24.10;57.40;;;;;;4991522;28;20409;-67
2021/06/26 10:30:43;;;;;;;2.80;1.13;;;24.10;57.40;;;;;;4993027;28;20422;-67
2021/06/26 10:33:12;;;;;;;1.95;1.00;;;24.10;57.30;;;;;;5010221;28;20398;-67
2021/06/26 10:35:52;;;;;;;2.70;1.05;;;24.10;57.10;;;;;;4994788;28;20399;-66
2021/06/26 10:38:18;;;;;;;2.60;1.20;;;24.00;57.10;;;;;;4995085;28;20399;-66
2021/06/26 10:40:57;;;;;;;2.70;1.30;;;24.10;57.60;;;;;;4995079;28;20715;-67
2021/06/26 10:43:30;;;;;;;3.10;1.40;;;24.10;58.60;;;;;;4995008;28;20394;-67
2021/06/26 10:46:07;;;;;;;4.40;1.50;;;24.10;58.90;;;;;;4993403;28;20405;-67
2021/06/26 10:48:33;;;;;;;6.65;1.48;;;24.10;58.80;;;;;;4982863;28;20398;-67
2021/06/26 10:50:58;;;;;;;3.63;1.70;;;24.10;58.90;;;;;;4994744;28;20414;-67
2021/06/26 10:53:33;;;;;;;2.37;1.47;;;24.10;59.10;;;;;;4994570;28;20893;-67
2021/06/26 10:56:01;;;;;;;3.20;1.50;;;24.10;59.30;;;;;;4993213;28;20398;-67
2021/06/26 10:58:29;;;;;;;4.03;1.80;;;24.10;59.20;;;;;;4994529;28;20898;-67
2021/06/26 11:00:56;;;;;;;5.17;1.50;;;24.10;59.80;;;;;;4992934;28;20499;-67
2021/06/26 11:03:30;;;;;;;8.73;1.77;;;24.20;59.70;;;;;;4992919;28;20406;-67
2021/06/26 11:05:58;;;;;;;5.22;1.65;;;24.20;59.80;;;;;;4993828;28;20390;-66
2021/06/26 11:08:24;;;;;;;7.28;1.85;;;24.20;60.50;;;;;;4994227;28;20406;-66
2021/06/26 11:10:59;;;;;;;7.07;1.70;;;24.20;61.20;;;;;;4994424;28;20427;-66
2021/06/26 11:13:29;;;;;;;9.18;2.08;;;24.20;60.80;;;;;;4994201;28;20387;-66
2021/06/26 11:16:06;;;;;;;5.05;1.65;;;24.20;60.70;;;;;;4994004;28;20415;-66
2021/06/26 11:18:33;;;;;;;6.43;1.60;;;24.20;60.30;;;;;;4994379;28;20397;-66
2021/06/26 11:20:59;;;;;;;3.63;1.58;;;24.20;60.20;;;;;;4994294;28;20489;-67
2021/06/26 11:23:25;;;;;;;7.43;1.90;;;24.20;59.70;;;;;;4994236;28;20538;-66
2021/06/26 11:25:51;;;;;;;4.72;1.60;;;24.20;59.30;;;;;;4993730;28;20449;-66
2021/06/26 11:28:18;;;;;;;3.20;1.43;;;24.10;58.90;;;;;;4993973;28;20790;-66
2021/06/26 11:30:56;;;;;;;2.90;1.60;;;24.20;58.80;;;;;;4993936;28;20826;-67
2021/06/26 11:33:31;;;;;;;3.05;1.60;;;24.20;58.50;;;;;;4987353;28;20394;-64
2021/06/26 11:35:57;;;;;;;4.40;1.60;;;24.10;57.90;;;;;;4983960;28;20483;-64
2021/06/26 11:38:23;;;;;;;3.60;1.40;;;24.10;57.80;;;;;;4982660;28;20462;-64
2021/06/26 11:40:51;;;;;;;2.53;1.52;;;24.10;57.70;;;;;;4990965;28;20408;-65
2021/06/26 11:43:17;;;;;;;4.68;1.67;;;24.10;58.20;;;;;;4984030;28;20388;-65
2021/06/26 11:45:46;;;;;;;4.60;1.77;;;24.10;57.50;;;;;;4982061;28;20722;-66
2021/06/26 11:48:14;;;;;;;2.95;1.50;;;24.10;57.50;;;;;;4983413;28;20383;-65
2021/06/26 11:50:46;;;;;;;3.67;1.63;;;24.10;57.40;;;;;;4984369;28;20456;-64
2021/06/26 11:53:14;;;;;;;4.28;1.50;;;24.10;57.20;;;;;;4983329;28;20403;-64
2021/06/26 11:56:00;;;;;;;2.72;1.60;;;24.10;57.10;;;;;;4982009;28;20415;-64
2021/06/26 11:58:46;;;;;;;2.42;1.40;;;24.10;57.70;;;;;;4982594;28;20388;-65
2021/06/26 12:01:17;;;;;;;4.18;1.67;;;24.10;57.00;;;;;;5008055;28;20398;-66
2021/06/26 12:03:44;;;;;;;3.63;1.80;;;24.10;57.00;;;;;;4992441;28;20905;-67
2021/06/26 12:06:12;;;;;;;2.70;1.58;;;24.10;57.00;;;;;;4993394;28;20395;-67
2021/06/26 12:08:42;;;;;;;4.10;1.70;;;24.20;56.90;;;;;;4993300;28;20391;-66
2021/06/26 12:11:13;;;;;;;3.10;1.70;;;24.10;56.70;;;;;;4993290;28;20426;-67
2021/06/26 12:13:41;;;;;;;3.67;1.60;;;24.10;56.70;;;;;;5008183;28;20445;-66
2021/06/26 12:16:07;;;;;;;7.53;1.80;;;24.10;56.90;;;;;;5008036;28;20767;-67
2021/06/26 12:18:33;;;;;;;4.00;1.80;;;25.10;57.20;;;;;;4992981;28;20397;-67
2021/06/26 12:21:08;;;;;;;3.00;1.85;;;25.40;54.90;;;;;;4993117;28;20394;-67
2021/06/26 12:23:47;;;;;;;4.13;1.80;;;25.80;54.10;;;;;;4992592;28;20382;-67
2021/06/26 12:26:21;;;;;;;3.58;1.63;;;26.20;53.50;;;;;;4992543;28;20390;-67
2021/06/26 12:28:47;;;;;;;5.95;1.85;;;26.20;52.90;;;;;;5008143;28;20413;-67
2021/06/26 12:31:13;;;;;;;6.40;1.90;;;26.30;52.40;;;;;;4992777;28;20512;-67
2021/06/26 12:33:39;;;;;;;3.67;1.80;;;26.40;52.40;;;;;;4992692;28;20441;-67
2021/06/26 12:36:14;;;;;;;3.50;1.60;;;26.50;52.00;;;;;;4992686;28;20406;-67
2021/06/26 12:38:41;;;;;;;3.92;1.75;;;26.50;51.90;;;;;;4991584;28;20482;-67
2021/06/26 12:41:19;;;;;;;4.05;1.60;;;26.50;51.90;;;;;;4992805;28;20394;-67
2021/06/26 12:43:45;;;;;;;4.05;1.88;;;26.60;51.40;;;;;;4992308;28;20438;-67
2021/06/26 12:46:11;;;;;;;4.87;2.00;;;26.60;51.70;;;;;;4992675;28;20784;-67
2021/06/26 12:48:42;;;;;;;3.22;1.70;;;26.30;52.20;;;;;;4992631;28;20395;-67